createdAt,value
2018-05-16T00:00:38.737Z,12.57
2018-05-16T00:03:07.065Z,10.47
2018-05-16T00:05:35.379Z,10.90
2018-05-16T00:08:03.694Z,9.67
2018-05-16T00:10:32.031Z,9.67
2018-05-16T00:13:00.324Z,11.57
2018-05-16T00:15:28.977Z,15.63
2018-05-16T00:17:57.283Z,10.97
2018-05-16T00:20:25.582Z,11.10
2018-05-16T00:22:53.916Z,10.27
2018-05-16T00:25:22.187Z,9.57
2018-05-16T00:27:50.523Z,11.50
2018-05-16T00:30:18.805Z,12.93
2018-05-16T00:32:47.078Z,10.33
2018-05-16T00:35:16.132Z,10.53
2018-05-16T00:37:44.436Z,10.33
2018-05-16T00:40:12.744Z,12.27
2018-05-16T00:42:41.042Z,13.07
2018-05-16T00:45:09.355Z,10.90
2018-05-16T00:47:37.673Z,10.47
2018-05-16T00:50:06.738Z,14.73
2018-05-16T00:52:35.076Z,11.30
2018-05-16T00:55:03.430Z,10.80
2018-05-16T00:57:32.462Z,11.30
2018-05-16T01:00:00.777Z,11.93
2018-05-16T01:02:29.089Z,16.80
2018-05-16T01:04:57.398Z,13.73
2018-05-16T01:07:25.748Z,9.53
2018-05-16T01:09:54.046Z,12.63
2018-05-16T01:12:22.544Z,15.43
2018-05-16T01:14:50.813Z,11.37
2018-05-16T01:17:19.099Z,12.37
2018-05-16T01:19:47.398Z,12.10
2018-05-16T01:22:15.726Z,10.87
2018-05-16T01:24:44.041Z,14.27
2018-05-16T01:27:12.344Z,11.47
2018-05-16T01:29:41.410Z,13.43
2018-05-16T01:32:09.714Z,16.17
2018-05-16T01:34:38.009Z,12.93
2018-05-16T01:37:07.142Z,13.27
2018-05-16T01:39:35.461Z,15.00
2018-05-16T01:42:03.768Z,14.50
2018-05-16T01:44:32.083Z,15.10
2018-05-16T01:47:00.400Z,16.83
2018-05-16T01:49:28.714Z,15.80
2018-05-16T01:51:56.951Z,15.63
2018-05-16T01:54:25.293Z,16.23
2018-05-16T01:56:53.585Z,19.43
2018-05-16T01:59:21.922Z,15.17
2018-05-16T02:01:50.209Z,15.10
2018-05-16T02:04:18.508Z,15.43
2018-05-16T02:06:46.823Z,18.30
2018-05-16T02:09:15.941Z,15.70
2018-05-16T02:11:44.313Z,14.87
2018-05-16T02:14:13.334Z,12.83
2018-05-16T02:16:41.715Z,14.00
2018-05-16T02:19:10.029Z,15.20
2018-05-16T02:21:38.357Z,13.80
2018-05-16T02:24:06.657Z,14.67
2018-05-16T02:26:34.985Z,13.67
2018-05-16T02:29:04.025Z,13.67
2018-05-16T02:31:32.347Z,16.70
2018-05-16T02:34:00.629Z,16.60
2018-05-16T02:36:29.701Z,16.13
2018-05-16T02:38:57.992Z,18.43
2018-05-16T02:41:26.334Z,18.90
2018-05-16T02:43:54.646Z,17.83
2018-05-16T02:46:22.937Z,16.13
2018-05-16T02:48:52.003Z,18.10
2018-05-16T02:51:20.307Z,19.77
2018-05-16T02:53:49.405Z,18.30
2018-05-16T02:56:18.449Z,16.53
2018-05-16T02:58:46.743Z,16.77
2018-05-16T03:01:15.065Z,15.83
2018-05-16T03:03:44.192Z,18.80
2018-05-16T03:06:12.508Z,17.40
2018-05-16T03:08:40.829Z,19.57
2018-05-16T03:11:09.380Z,19.23
2018-05-16T03:13:37.680Z,16.00
2018-05-16T03:16:06.729Z,16.43
2018-05-16T03:18:35.036Z,18.47
2018-05-16T03:21:03.333Z,18.77
2018-05-16T03:23:32.397Z,18.60
2018-05-16T03:26:00.692Z,20.10
2018-05-16T03:28:29.800Z,18.73
2018-05-16T03:30:58.896Z,21.13
2018-05-16T03:33:27.954Z,19.33
2018-05-16T03:35:56.292Z,18.73
2018-05-16T03:38:24.592Z,18.70
2018-05-16T03:40:52.883Z,18.50
2018-05-16T03:43:21.214Z,16.40
2018-05-16T03:45:49.547Z,17.53
2018-05-16T03:48:17.851Z,17.33
2018-05-16T03:50:46.915Z,16.73
2018-05-16T03:53:15.225Z,15.13
2018-05-16T03:55:44.273Z,16.67
2018-05-16T03:58:30.365Z,18.90
2018-05-16T04:01:16.309Z,17.30
2018-05-16T04:04:02.846Z,19.17
2018-05-16T04:06:31.201Z,16.47
2018-05-16T04:09:00.346Z,15.80
2018-05-16T04:11:28.695Z,14.80
2018-05-16T04:13:57.010Z,15.10
2018-05-16T04:16:25.308Z,17.43
2018-05-16T04:18:53.593Z,14.53
2018-05-16T04:21:22.644Z,13.93
2018-05-16T04:23:50.942Z,13.07
2018-05-16T04:26:19.254Z,14.03
2018-05-16T04:28:48.425Z,12.70
2018-05-16T04:31:16.697Z,14.20
2018-05-16T04:33:45.006Z,18.97
2018-05-16T04:36:14.096Z,14.87
2018-05-16T04:38:43.184Z,14.73
2018-05-16T04:41:11.491Z,13.57
2018-05-16T04:43:39.812Z,13.23
2018-05-16T04:46:08.118Z,14.00
2018-05-16T04:48:36.432Z,13.80
2018-05-16T04:51:04.763Z,14.43
2018-05-16T04:53:33.063Z,12.43
2018-05-16T04:56:02.108Z,11.23
2018-05-16T04:58:30.416Z,13.63
2018-05-16T05:00:58.715Z,11.17
2018-05-16T05:03:27.774Z,11.10
2018-05-16T05:05:56.067Z,10.23
2018-05-16T05:08:25.120Z,13.43
2018-05-16T05:10:53.416Z,11.10
2018-05-16T05:13:21.729Z,11.57
2018-05-16T05:15:50.832Z,11.97
2018-05-16T05:18:20.010Z,9.50
2018-05-16T05:20:48.206Z,9.43
2018-05-16T05:23:17.266Z,8.57
2018-05-16T05:25:45.589Z,8.47
2018-05-16T05:28:14.626Z,10.63
2018-05-16T05:30:42.932Z,8.73
2018-05-16T05:33:11.272Z,8.27
2018-05-16T05:35:39.549Z,7.60
2018-05-16T05:38:07.852Z,8.27
2018-05-16T05:40:36.146Z,9.77
2018-05-16T05:43:04.467Z,10.17
2018-05-16T05:45:32.780Z,9.83
2018-05-16T05:48:01.133Z,10.27
2018-05-16T05:50:29.425Z,9.93
2018-05-16T05:52:57.730Z,13.37
2018-05-16T05:55:26.068Z,13.43
2018-05-16T05:57:54.359Z,11.90
2018-05-16T06:00:22.683Z,9.43
2018-05-16T06:02:51.740Z,11.37
2018-05-16T06:05:20.081Z,9.60
2018-05-16T06:07:48.542Z,10.90
2018-05-16T06:10:17.599Z,9.03
2018-05-16T06:12:46.010Z,9.43
2018-05-16T06:15:14.301Z,10.63
2018-05-16T06:17:42.597Z,10.77
2018-05-16T06:20:10.913Z,10.93
2018-05-16T06:22:39.461Z,9.47
2018-05-16T06:25:07.745Z,10.63
2018-05-16T06:27:36.043Z,11.10
2018-05-16T06:30:04.487Z,10.40
2018-05-16T06:32:32.792Z,10.37
2018-05-16T06:35:01.117Z,9.77
2018-05-16T06:37:30.171Z,14.13
2018-05-16T06:39:59.211Z,12.37
2018-05-16T06:42:28.321Z,13.43
2018-05-16T06:44:56.629Z,10.53
2018-05-16T06:47:24.928Z,11.90
2018-05-16T06:49:53.214Z,11.67
2018-05-16T06:52:21.525Z,12.73
2018-05-16T06:54:50.582Z,13.30
2018-05-16T06:57:18.926Z,11.87
2018-05-16T06:59:47.250Z,10.17
2018-05-16T07:02:15.553Z,19.40
2018-05-16T07:04:43.897Z,11.07
2018-05-16T07:07:12.379Z,10.90
2018-05-16T07:09:40.716Z,13.10
2018-05-16T07:12:09.031Z,12.47
2018-05-16T07:14:38.082Z,12.00
2018-05-16T07:17:06.387Z,11.50
2018-05-16T07:19:34.679Z,13.00
2018-05-16T07:22:02.991Z,12.33
2018-05-16T07:24:32.061Z,13.80
2018-05-16T07:27:00.401Z,12.43
2018-05-16T07:29:28.721Z,14.13
2018-05-16T07:31:57.025Z,13.73
2018-05-16T07:34:25.375Z,12.43
2018-05-16T07:36:53.681Z,12.33
2018-05-16T07:39:21.961Z,13.23
2018-05-16T07:41:50.343Z,16.93
2018-05-16T07:44:18.645Z,13.57
2018-05-16T07:46:46.957Z,14.17
2018-05-16T07:49:15.346Z,13.40
2018-05-16T07:51:43.629Z,13.63
2018-05-16T07:54:12.688Z,14.23
2018-05-16T07:56:40.984Z,18.03
2018-05-16T07:59:13.560Z,16.13
2018-05-16T08:01:41.864Z,15.83
2018-05-16T08:04:10.912Z,16.53
2018-05-16T08:06:39.215Z,17.07
2018-05-16T08:09:07.538Z,13.50
2018-05-16T08:11:35.825Z,14.03
2018-05-16T08:14:04.146Z,15.80
2018-05-16T08:16:32.440Z,12.90
2018-05-16T08:19:01.509Z,13.63
2018-05-16T08:21:29.812Z,14.63
2018-05-16T08:23:58.896Z,12.77
2018-05-16T08:26:27.237Z,13.57
2018-05-16T08:28:55.558Z,15.17
2018-05-16T08:31:23.886Z,12.67
2018-05-16T08:33:52.210Z,14.63
2018-05-16T08:36:20.553Z,14.37
2018-05-16T08:38:48.855Z,13.23
2018-05-16T08:41:17.135Z,13.20
2018-05-16T08:43:45.507Z,16.73
2018-05-16T08:46:15.402Z,13.20
2018-05-16T08:48:43.705Z,12.87
2018-05-16T08:51:12.016Z,13.43
2018-05-16T08:53:40.359Z,14.87
2018-05-16T08:56:08.697Z,14.53
2018-05-16T08:58:37.010Z,14.27
2018-05-16T09:01:05.373Z,15.80
2018-05-16T09:03:33.622Z,14.83
2018-05-16T09:06:01.927Z,19.70
2018-05-16T09:11:04.750Z,14.87
2018-05-16T09:13:33.083Z,16.37
2018-05-16T09:16:01.389Z,15.13
2018-05-16T09:18:29.706Z,16.17
2018-05-16T09:20:58.785Z,16.47
2018-05-16T09:23:27.066Z,16.47
2018-05-16T09:25:55.373Z,18.77
2018-05-16T09:28:24.420Z,16.67
2018-05-16T09:30:52.762Z,14.30
2018-05-16T09:33:21.217Z,18.93
2018-05-16T09:35:50.249Z,14.90
2018-05-16T09:38:18.604Z,17.50
2018-05-16T09:40:47.009Z,18.53
2018-05-16T09:43:15.317Z,16.83
2018-05-16T09:45:43.674Z,16.03
2018-05-16T09:48:12.676Z,17.90
2018-05-16T09:50:41.034Z,14.10
2018-05-16T09:53:09.349Z,13.60
2018-05-16T09:55:37.670Z,15.53
2018-05-16T09:58:07.104Z,13.23
2018-05-16T10:00:35.396Z,17.07
2018-05-16T10:03:03.717Z,15.93
2018-05-16T10:05:32.765Z,14.40
2018-05-16T10:08:01.052Z,14.67
2018-05-16T10:10:29.436Z,14.60
2018-05-16T10:12:57.808Z,14.23
2018-05-16T10:15:26.078Z,14.97
2018-05-16T10:17:54.471Z,15.30
2018-05-16T10:20:22.772Z,18.53
2018-05-16T10:22:51.949Z,16.10
2018-05-16T10:25:20.324Z,17.67
2018-05-16T10:27:49.415Z,18.33
2018-05-16T10:30:17.712Z,18.33
2018-05-16T10:32:46.044Z,21.23
2018-05-16T10:35:14.348Z,19.83
2018-05-16T10:37:42.675Z,21.33
2018-05-16T10:40:10.989Z,20.50
2018-05-16T10:42:39.309Z,19.27
2018-05-16T10:45:07.804Z,17.47
2018-05-16T10:47:36.166Z,19.77
2018-05-16T10:50:05.242Z,23.57
2018-05-16T10:52:33.569Z,19.20
2018-05-16T10:55:01.890Z,23.17
2018-05-16T10:57:30.364Z,20.87
2018-05-16T10:59:58.652Z,20.00
2018-05-16T11:02:26.955Z,21.63
2018-05-16T11:04:55.250Z,20.07
2018-05-16T11:07:24.402Z,19.87
2018-05-16T11:09:52.719Z,22.37
2018-05-16T11:12:21.796Z,29.73
2018-05-16T11:14:50.151Z,21.67
2018-05-16T11:17:18.464Z,27.40
2018-05-16T11:19:47.576Z,24.47
2018-05-16T11:22:15.916Z,19.47
2018-05-16T11:24:44.204Z,19.77
2018-05-16T11:27:12.653Z,22.83
2018-05-16T11:29:40.965Z,22.20
2018-05-16T11:32:09.301Z,22.87
2018-05-16T11:34:37.607Z,22.13
2018-05-16T11:37:05.934Z,24.67
2018-05-16T11:39:34.472Z,20.90
2018-05-16T11:42:02.897Z,21.37
2018-05-16T11:44:31.217Z,20.03
2018-05-16T11:46:59.525Z,19.27
2018-05-16T11:49:27.853Z,21.57
2018-05-16T11:51:56.151Z,22.20
2018-05-16T11:54:24.548Z,21.73
2018-05-16T11:56:52.835Z,20.27
2018-05-16T11:59:21.255Z,18.17
2018-05-16T12:01:49.566Z,19.77
2018-05-16T12:04:18.012Z,21.53
2018-05-16T12:06:46.324Z,18.43
2018-05-16T12:09:14.730Z,20.60
2018-05-16T12:11:43.273Z,20.13
2018-05-16T12:14:11.553Z,20.30
2018-05-16T12:16:39.892Z,19.67
2018-05-16T12:19:08.955Z,19.23
2018-05-16T12:21:37.279Z,18.87
2018-05-16T12:24:05.605Z,20.47
2018-05-16T12:26:34.162Z,22.17
2018-05-16T12:29:02.521Z,21.07
2018-05-16T12:31:30.764Z,22.00
2018-05-16T12:33:59.880Z,20.93
2018-05-16T12:36:28.311Z,21.03
2018-05-16T12:38:56.551Z,21.93
2018-05-16T12:41:24.842Z,21.40
2018-05-16T12:43:53.159Z,20.97
2018-05-16T12:46:21.441Z,19.40
2018-05-16T12:48:49.755Z,20.47
2018-05-16T12:51:18.087Z,22.57
2018-05-16T12:53:46.725Z,22.03
2018-05-16T12:56:15.121Z,21.60
2018-05-16T12:58:43.503Z,22.30
2018-05-16T13:01:12.045Z,21.13
2018-05-16T13:03:40.641Z,21.37
2018-05-16T13:06:09.185Z,21.50
2018-05-16T13:08:37.557Z,25.03
2018-05-16T13:11:06.622Z,20.00
2018-05-16T13:13:34.958Z,21.17
2018-05-16T13:16:04.022Z,20.60
2018-05-16T13:18:32.350Z,22.53
2018-05-16T13:21:00.680Z,20.93
2018-05-16T13:23:29.790Z,21.70
2018-05-16T13:25:58.113Z,20.83
2018-05-16T13:28:27.350Z,22.67
2018-05-16T13:30:55.753Z,24.00
2018-05-16T13:33:24.408Z,25.17
2018-05-16T13:35:52.860Z,23.10
2018-05-16T13:38:21.167Z,22.13
2018-05-16T13:40:49.498Z,21.97
2018-05-16T13:43:18.582Z,26.70
2018-05-16T13:45:47.661Z,23.60
2018-05-16T13:48:15.953Z,22.30
2018-05-16T13:50:45.085Z,23.40
2018-05-16T13:53:13.522Z,21.53
2018-05-16T13:55:42.636Z,22.60
2018-05-16T13:58:11.732Z,22.60
2018-05-16T14:00:40.899Z,22.33
2018-05-16T14:03:09.342Z,21.67
2018-05-16T14:05:37.620Z,25.80
2018-05-16T14:08:05.969Z,22.47
2018-05-16T14:10:34.288Z,22.47
2018-05-16T14:13:02.609Z,22.03
2018-05-16T14:15:31.705Z,20.83
2018-05-16T14:18:00.785Z,20.83
2018-05-16T14:20:29.283Z,19.90
2018-05-16T14:22:58.416Z,21.73
2018-05-16T14:25:26.871Z,21.53
2018-05-16T14:27:55.984Z,19.90
2018-05-16T14:30:24.304Z,21.63
2018-05-16T14:32:52.638Z,20.80
2018-05-16T14:35:21.067Z,21.83
2018-05-16T14:37:49.364Z,22.40
2018-05-16T14:40:17.682Z,25.73
2018-05-16T14:42:46.081Z,24.43
2018-05-16T14:45:14.439Z,24.77
2018-05-16T14:47:42.780Z,25.07
2018-05-16T14:50:11.866Z,24.40
2018-05-16T14:52:40.160Z,24.37
2018-05-16T14:55:09.243Z,26.70
2018-05-16T14:57:37.572Z,27.57
2018-05-16T15:00:05.910Z,25.30
2018-05-16T15:02:34.992Z,28.67
2018-05-16T15:05:03.389Z,27.03
2018-05-16T15:07:33.035Z,26.33
2018-05-16T15:10:01.296Z,26.80
2018-05-16T15:12:29.739Z,29.10
2018-05-16T15:14:58.093Z,25.97
2018-05-16T15:17:26.390Z,25.53
2018-05-16T15:19:54.732Z,28.57
2018-05-16T15:22:23.048Z,26.17
2018-05-16T15:24:51.362Z,29.50
2018-05-16T15:27:19.711Z,24.47
2018-05-16T15:29:47.998Z,25.10
2018-05-16T15:32:17.122Z,25.30
2018-05-16T15:34:45.449Z,25.97
2018-05-16T15:37:13.764Z,25.20
2018-05-16T15:39:42.804Z,28.07
2018-05-16T15:42:11.233Z,27.77
2018-05-16T15:44:40.296Z,27.87
2018-05-16T15:47:08.683Z,27.27
2018-05-16T15:49:37.004Z,28.43
2018-05-16T15:52:05.313Z,29.57
2018-05-16T15:54:34.096Z,29.70
2018-05-16T15:57:02.376Z,26.90
2018-05-16T15:59:33.662Z,22.77
2018-05-16T16:02:02.775Z,25.43
2018-05-16T16:04:31.365Z,23.90
2018-05-16T16:06:59.722Z,26.13
2018-05-16T16:09:28.049Z,21.73
2018-05-16T16:11:56.360Z,26.03
2018-05-16T16:14:24.716Z,23.10
2018-05-16T16:16:53.030Z,19.70
2018-05-16T16:19:21.362Z,16.90
2018-05-16T16:21:49.658Z,22.90
2018-05-16T16:24:18.030Z,20.07
2018-05-16T16:26:46.386Z,15.20
2018-05-16T16:29:14.724Z,15.37
2018-05-16T16:31:43.239Z,14.83
2018-05-16T16:34:11.554Z,14.10
2018-05-16T16:36:39.881Z,12.37
2018-05-16T16:39:08.979Z,14.17
2018-05-16T16:41:38.461Z,11.47
2018-05-16T16:44:06.776Z,9.87
2018-05-16T16:46:35.122Z,9.47
2018-05-16T16:49:03.456Z,9.00
2018-05-16T16:51:31.747Z,11.30
2018-05-16T16:54:00.060Z,9.03
2018-05-16T16:56:28.376Z,9.37
2018-05-16T16:58:56.689Z,8.60
2018-05-16T17:01:24.999Z,9.27
2018-05-16T17:03:54.062Z,9.77
2018-05-16T17:06:22.451Z,8.10
2018-05-16T17:08:50.751Z,10.90
2018-05-16T17:11:19.977Z,10.33
2018-05-16T17:13:48.309Z,9.67
2018-05-16T17:16:16.672Z,11.47
2018-05-16T17:18:45.007Z,8.93
2018-05-16T17:21:13.309Z,11.20
2018-05-16T17:23:41.841Z,10.73
2018-05-16T17:26:10.985Z,12.40
2018-05-16T17:28:39.291Z,11.63
2018-05-16T17:31:07.628Z,10.90
2018-05-16T17:33:35.912Z,13.30
2018-05-16T17:36:04.321Z,14.40
2018-05-16T17:38:32.599Z,12.10
2018-05-16T17:41:01.729Z,13.43
2018-05-16T17:43:30.851Z,13.27
2018-05-16T17:45:59.169Z,12.93
2018-05-16T17:48:27.500Z,12.57
2018-05-16T17:50:55.830Z,14.07
2018-05-16T17:53:24.168Z,14.37
2018-05-16T17:55:52.490Z,14.07
2018-05-16T17:58:20.815Z,15.93
2018-05-16T18:00:49.152Z,10.73
2018-05-16T18:03:17.461Z,15.60
2018-05-16T18:05:46.666Z,14.80
2018-05-16T18:08:14.976Z,13.97
2018-05-16T18:10:43.338Z,15.07
2018-05-16T18:16:56.682Z,16.27
2018-05-16T18:19:24.981Z,15.47
2018-05-16T18:21:53.329Z,17.93
2018-05-16T18:24:21.647Z,14.80
2018-05-16T18:26:49.956Z,18.63
2018-05-16T18:29:18.405Z,15.90
2018-05-16T18:31:46.723Z,17.97
2018-05-16T18:34:15.064Z,13.13
2018-05-16T18:36:43.467Z,15.10
2018-05-16T18:39:11.844Z,13.57
2018-05-16T18:41:40.138Z,21.27
2018-05-16T18:44:09.289Z,33.63
2018-05-16T18:46:37.588Z,16.97
2018-05-16T18:49:05.971Z,17.83
2018-05-16T18:51:34.389Z,20.10
2018-05-16T18:54:03.508Z,15.23
2018-05-16T18:56:31.897Z,16.93
2018-05-16T18:59:04.673Z,17.63
2018-05-16T19:01:33.095Z,14.27
2018-05-16T19:04:02.163Z,16.90
2018-05-16T19:06:30.499Z,18.90
2018-05-16T19:08:58.829Z,18.17
2018-05-16T19:11:27.177Z,19.73
2018-05-16T19:13:55.517Z,18.67
2018-05-16T19:16:23.859Z,16.07
2018-05-16T19:18:52.238Z,21.90
2018-05-16T19:21:20.537Z,18.43
2018-05-16T19:23:48.895Z,19.40
2018-05-16T19:26:17.230Z,19.97
2018-05-16T19:28:45.605Z,20.27
2018-05-16T19:31:13.925Z,22.57
2018-05-16T19:33:42.263Z,23.20
2018-05-16T19:36:11.363Z,26.20
2018-05-16T19:38:40.542Z,22.37
2018-05-16T19:41:09.671Z,23.73
2018-05-16T19:43:38.017Z,22.90
2018-05-16T19:46:07.333Z,22.53
2018-05-16T19:48:35.608Z,17.73
2018-05-16T19:51:05.090Z,19.60
2018-05-16T19:53:33.412Z,23.30
2018-05-16T19:56:01.792Z,20.90
2018-05-16T19:58:30.180Z,21.33
2018-05-16T20:00:58.515Z,27.83
2018-05-16T20:03:26.896Z,18.70
2018-05-16T20:05:55.281Z,25.83
2018-05-16T20:08:23.621Z,26.17
2018-05-16T20:10:51.953Z,27.90
2018-05-16T20:13:20.282Z,20.87
2018-05-16T20:15:48.635Z,23.23
2018-05-16T20:18:16.969Z,26.50
2018-05-16T20:20:46.061Z,24.03
2018-05-16T20:23:14.429Z,26.63
2018-05-16T20:25:42.789Z,23.83
2018-05-16T20:28:11.100Z,21.80
2018-05-16T20:30:40.345Z,22.40
2018-05-16T20:33:08.684Z,30.07
2018-05-16T20:35:37.773Z,23.90
2018-05-16T20:38:06.889Z,24.07
2018-05-16T20:40:35.317Z,28.57
2018-05-16T20:43:03.640Z,28.30
2018-05-16T20:45:32.007Z,25.97
2018-05-16T20:48:01.167Z,26.03
2018-05-16T20:50:29.494Z,27.43
2018-05-16T20:52:58.562Z,37.33
2018-05-16T20:55:26.993Z,26.33
2018-05-16T20:57:55.337Z,30.07
2018-05-16T21:00:24.513Z,25.00
2018-05-16T21:02:52.909Z,24.50
2018-05-16T21:05:22.124Z,30.37
2018-05-16T21:07:50.527Z,26.83
2018-05-16T21:10:18.865Z,25.97
2018-05-16T21:12:48.063Z,25.83
2018-05-16T21:15:17.127Z,28.27
2018-05-16T21:17:45.526Z,27.87
2018-05-16T21:20:14.593Z,24.93
2018-05-16T21:22:42.947Z,28.63
2018-05-16T21:25:11.242Z,27.40
2018-05-16T21:27:39.556Z,30.93
2018-05-16T21:30:07.905Z,29.23
2018-05-16T21:32:36.311Z,29.07
2018-05-16T21:35:04.666Z,26.27
2018-05-16T21:37:32.978Z,25.93
2018-05-16T21:40:01.332Z,22.33
2018-05-16T21:42:29.627Z,26.53
2018-05-16T21:44:57.947Z,24.27
2018-05-16T21:47:26.220Z,26.13
2018-05-16T21:49:54.550Z,22.53
2018-05-16T21:52:22.876Z,29.93
2018-05-16T21:54:51.253Z,29.27
2018-05-16T21:57:19.607Z,24.40
2018-05-16T21:59:48.694Z,21.70
2018-05-16T22:02:16.973Z,22.57
2018-05-16T22:04:46.080Z,24.20
2018-05-16T22:07:15.157Z,22.37
2018-05-16T22:09:43.481Z,28.40
2018-05-16T22:12:11.779Z,25.23
2018-05-16T22:14:40.117Z,29.77
2018-05-16T22:17:09.153Z,23.20
2018-05-16T22:19:37.507Z,25.17
2018-05-16T22:22:05.863Z,26.83
2018-05-16T22:24:35.027Z,26.40
2018-05-16T22:27:03.649Z,29.43
2018-05-16T22:29:32.717Z,26.43
2018-05-16T22:32:06.528Z,22.47
2018-05-16T22:34:40.404Z,36.50
2018-05-16T22:37:14.003Z,31.23
2018-05-16T22:39:47.840Z,27.47
2018-05-16T22:42:21.924Z,27.63
2018-05-16T22:44:55.653Z,16.93
2018-05-16T22:47:23.960Z,27.53
2018-05-16T22:49:53.029Z,25.90
2018-05-16T22:52:21.374Z,24.00
2018-05-16T22:54:49.631Z,29.23
2018-05-16T22:57:17.997Z,24.70
2018-05-16T22:59:47.075Z,28.13
2018-05-16T23:02:15.410Z,27.70
2018-05-16T23:04:43.692Z,29.77
2018-05-16T23:07:11.987Z,26.97
2018-05-16T23:09:40.322Z,18.83
2018-05-16T23:12:09.045Z,27.17
2018-05-16T23:14:37.359Z,26.70
2018-05-16T23:17:06.655Z,28.30
2018-05-16T23:19:35.149Z,25.30
2018-05-16T23:22:04.203Z,29.33
2018-05-16T23:24:32.632Z,25.63
2018-05-16T23:27:01.721Z,29.50
2018-05-16T23:29:30.784Z,26.33
2018-05-16T23:31:59.089Z,25.43
2018-05-16T23:34:28.142Z,32.83
2018-05-16T23:36:56.418Z,34.23
2018-05-16T23:39:24.762Z,22.90
2018-05-16T23:41:53.116Z,27.13
2018-05-16T23:44:22.206Z,33.30
2018-05-16T23:46:51.281Z,30.87
2018-05-16T23:49:19.569Z,33.87
2018-05-16T23:51:47.882Z,27.47
2018-05-16T23:54:16.191Z,30.20
2018-05-16T23:56:44.524Z,29.80
2018-05-16T23:59:13.554Z,30.83
